createdAt,value
2019-03-24T00:01:41.674Z,23.53
2019-03-24T00:04:10.524Z,25.17
2019-03-24T00:06:39.238Z,24.27
2019-03-24T00:09:08.045Z,23.53
2019-03-24T00:11:36.811Z,23.57
2019-03-24T00:14:05.723Z,22.97
2019-03-24T00:16:34.437Z,25.23
2019-03-24T00:19:03.797Z,23.70
2019-03-24T00:21:32.510Z,24.50
2019-03-24T00:24:01.224Z,26.20
2019-03-24T00:26:29.984Z,22.93
2019-03-24T00:28:58.698Z,22.40
2019-03-24T00:31:27.408Z,27.73
2019-03-24T00:36:33.761Z,23.63
2019-03-24T00:39:02.480Z,23.97
2019-03-24T00:41:31.241Z,22.53
2019-03-24T00:43:59.967Z,22.53
2019-03-24T00:46:28.676Z,25.43
2019-03-24T00:49:04.040Z,20.37
2019-03-24T00:51:32.753Z,20.43
2019-03-24T00:54:01.480Z,19.80
2019-03-24T00:56:30.226Z,20.67
2019-03-24T00:58:58.942Z,22.13
2019-03-24T01:01:27.642Z,20.30
2019-03-24T01:04:04.692Z,25.03
2019-03-24T01:06:33.369Z,21.47
2019-03-24T01:09:08.426Z,23.03
2019-03-24T01:11:37.196Z,21.40
2019-03-24T01:14:05.933Z,22.17
2019-03-24T01:16:34.647Z,22.77
2019-03-24T01:19:04.019Z,22.30
2019-03-24T01:21:32.741Z,22.17
2019-03-24T01:24:01.462Z,24.63
2019-03-24T01:26:30.220Z,27.47
2019-03-24T01:28:58.936Z,23.23
2019-03-24T01:31:27.643Z,21.13
2019-03-24T01:34:04.028Z,22.70
2019-03-24T01:36:32.758Z,22.07
2019-03-24T01:39:01.476Z,21.53
2019-03-24T01:41:30.250Z,20.23
2019-03-24T01:43:58.955Z,23.60
2019-03-24T01:46:27.672Z,24.20
2019-03-24T01:49:03.311Z,20.80
2019-03-24T01:51:32.017Z,24.43
2019-03-24T01:54:00.726Z,22.67
2019-03-24T01:56:29.474Z,22.80
2019-03-24T01:58:58.189Z,21.83
2019-03-24T02:01:26.897Z,23.33
2019-03-24T02:03:55.667Z,21.63
2019-03-24T02:06:24.378Z,21.03
2019-03-24T02:08:53.086Z,26.03
2019-03-24T02:11:21.840Z,19.90
2019-03-24T02:13:50.553Z,19.67
2019-03-24T02:16:19.263Z,25.77
2019-03-24T02:18:48.032Z,21.90
2019-03-24T02:21:16.747Z,19.33
2019-03-24T02:23:45.457Z,23.67
2019-03-24T02:26:14.223Z,20.80
2019-03-24T02:28:42.976Z,19.43
2019-03-24T02:31:11.692Z,21.93
2019-03-24T02:33:40.437Z,22.47
2019-03-24T02:36:09.151Z,20.80
2019-03-24T02:38:37.877Z,24.77
2019-03-24T02:41:06.631Z,25.33
2019-03-24T02:43:35.412Z,21.87
2019-03-24T02:46:04.135Z,22.87
2019-03-24T02:48:32.897Z,22.03
2019-03-24T02:51:01.612Z,28.93
2019-03-24T02:53:30.326Z,24.17
2019-03-24T02:56:04.709Z,23.43
2019-03-24T02:58:33.420Z,23.03
2019-03-24T03:01:02.126Z,23.27
2019-03-24T03:03:30.879Z,23.10
2019-03-24T03:05:59.594Z,24.47
2019-03-24T03:08:28.302Z,22.37
2019-03-24T03:11:04.115Z,24.97
2019-03-24T03:13:32.808Z,24.40
2019-03-24T03:16:01.523Z,27.07
2019-03-24T03:18:30.386Z,25.07
2019-03-24T03:20:59.099Z,27.70
2019-03-24T03:23:27.822Z,26.00
2019-03-24T03:26:04.073Z,28.00
2019-03-24T03:28:32.779Z,27.00
2019-03-24T03:31:01.499Z,28.63
2019-03-24T03:33:30.374Z,22.90
2019-03-24T03:35:59.063Z,23.73
2019-03-24T03:38:27.770Z,23.83
2019-03-24T03:43:34.127Z,30.33
2019-03-24T03:46:02.855Z,27.70
2019-03-24T03:48:31.606Z,27.20
2019-03-24T03:51:00.319Z,26.47
2019-03-24T03:53:29.039Z,22.83
2019-03-24T03:56:04.177Z,26.83
2019-03-24T03:58:32.878Z,23.47
2019-03-24T04:01:01.588Z,25.03
2019-03-24T04:03:30.338Z,23.30
2019-03-24T04:05:59.045Z,22.50
2019-03-24T04:08:27.753Z,22.37
2019-03-24T04:39:41.277Z,31.33
2019-03-24T04:42:09.985Z,24.63
2019-03-24T04:44:38.732Z,24.77
2019-03-24T04:47:16.323Z,24.83
2019-03-24T04:49:37.889Z,24.90
2019-03-24T04:52:06.652Z,31.73
2019-03-24T04:54:35.366Z,26.43
2019-03-24T04:57:04.072Z,32.10
2019-03-24T04:59:32.800Z,29.87
2019-03-24T05:02:01.513Z,24.40
2019-03-24T05:04:30.277Z,26.97
2019-03-24T05:06:59.493Z,30.53
2019-03-24T05:09:28.304Z,35.43
2019-03-24T05:11:57.017Z,35.37
2019-03-24T05:14:25.732Z,46.83
2019-03-24T05:16:54.501Z,40.20
2019-03-24T05:19:23.226Z,34.43
2019-03-24T05:21:51.938Z,30.53
2019-03-24T05:24:20.696Z,34.77
2019-03-24T05:26:49.413Z,33.87
2019-03-24T05:29:18.113Z,25.70
2019-03-24T05:31:53.574Z,24.87
2019-03-24T05:34:22.290Z,26.20
2019-03-24T05:36:51.012Z,30.67
2019-03-24T05:39:19.776Z,33.63
2019-03-24T05:41:54.794Z,79.93
2019-03-24T05:44:23.508Z,63.17
2019-03-24T05:46:53.983Z,35.80
2019-03-24T05:49:22.698Z,30.70
2019-03-24T05:51:51.404Z,31.67
2019-03-24T05:54:20.152Z,28.53
2019-03-24T05:56:48.856Z,25.73
2019-03-24T05:59:17.570Z,24.77
2019-03-24T06:01:54.084Z,26.63
2019-03-24T06:04:22.797Z,26.13
2019-03-24T06:06:51.510Z,32.80
2019-03-24T06:09:20.269Z,29.83
2019-03-24T06:11:48.986Z,28.70
2019-03-24T06:14:17.705Z,31.93
2019-03-24T06:16:55.897Z,31.07
2019-03-24T06:19:24.652Z,26.77
2019-03-24T06:21:53.348Z,26.67
2019-03-24T06:24:22.111Z,25.83
2019-03-24T06:26:50.818Z,29.93
2019-03-24T06:29:19.531Z,27.33
2019-03-24T06:31:55.277Z,34.30
2019-03-24T06:34:23.981Z,31.70
2019-03-24T06:36:52.702Z,37.17
2019-03-24T06:39:21.460Z,32.30
2019-03-24T06:41:55.748Z,29.77
2019-03-24T06:44:24.453Z,32.03
2019-03-24T06:46:54.688Z,27.53
2019-03-24T06:49:23.405Z,27.00
2019-03-24T06:51:52.111Z,27.43
2019-03-24T06:54:20.838Z,28.47
2019-03-24T06:56:49.550Z,26.63
2019-03-24T06:59:18.305Z,27.70
2019-03-24T07:01:47.018Z,26.73
2019-03-24T07:04:15.729Z,32.90
2019-03-24T07:09:22.091Z,35.13
2019-03-24T07:11:53.542Z,28.73
2019-03-24T07:14:22.257Z,32.70
2019-03-24T07:16:51.009Z,27.47
2019-03-24T07:19:19.727Z,29.30
2019-03-24T07:21:48.441Z,31.50
2019-03-24T07:24:17.162Z,26.33
2019-03-24T07:26:53.444Z,30.80
2019-03-24T07:29:22.204Z,30.30
2019-03-24T07:31:50.923Z,34.33
2019-03-24T07:34:19.639Z,28.23
2019-03-24T07:36:56.580Z,31.13
2019-03-24T07:39:25.296Z,29.63
2019-03-24T07:41:56.513Z,37.27
2019-03-24T07:44:25.221Z,32.67
2019-03-24T07:46:53.936Z,30.77
2019-03-24T07:49:22.658Z,30.63
2019-03-24T07:51:51.371Z,40.97
2019-03-24T07:54:20.120Z,31.97
2019-03-24T07:56:48.835Z,35.07
2019-03-24T07:59:17.549Z,34.23
2019-03-24T08:01:51.817Z,33.23
2019-03-24T08:04:20.530Z,33.83
2019-03-24T08:06:51.644Z,35.43
2019-03-24T08:09:20.363Z,32.07
2019-03-24T08:11:49.075Z,31.30
2019-03-24T08:14:17.801Z,31.37
2019-03-24T08:16:46.514Z,27.93
2019-03-24T08:19:15.280Z,29.77
2019-03-24T08:21:43.994Z,32.17
2019-03-24T08:24:12.710Z,27.00
2019-03-24T08:26:41.431Z,27.03
2019-03-24T08:29:10.149Z,29.87
2019-03-24T08:31:38.903Z,25.53
2019-03-24T08:34:07.617Z,25.07
2019-03-24T08:36:36.328Z,24.17
2019-03-24T08:39:06.486Z,28.60
2019-03-24T08:41:35.199Z,24.83
2019-03-24T08:44:03.915Z,26.40
2019-03-24T08:46:32.628Z,23.93
2019-03-24T08:49:01.346Z,24.20
2019-03-24T08:51:30.066Z,25.43
2019-03-24T08:53:58.858Z,29.57
2019-03-24T08:56:27.572Z,26.53
2019-03-24T08:58:56.277Z,20.93
2019-03-24T09:01:25.031Z,23.17
2019-03-24T09:03:53.747Z,22.17
2019-03-24T09:06:22.458Z,64.00
2019-03-24T09:08:51.179Z,27.77
2019-03-24T09:11:30.677Z,164.63
2019-03-24T09:13:51.698Z,324.57
2019-03-24T09:16:20.424Z,267.43
2019-03-24T09:18:52.970Z,318.53
2019-03-24T09:21:19.753Z,101.13
2019-03-24T09:23:48.485Z,49.97
2019-03-24T09:26:17.244Z,36.87
2019-03-24T09:28:45.955Z,35.23
2019-03-24T09:31:14.663Z,29.40
2019-03-24T09:33:43.436Z,28.67
2019-03-24T09:36:12.149Z,30.60
2019-03-24T09:38:40.862Z,28.30
2019-03-24T09:41:09.599Z,24.77
2019-03-24T09:43:38.319Z,28.97
2019-03-24T09:46:07.035Z,29.57
2019-03-24T09:48:35.814Z,28.87
2019-03-24T09:51:04.520Z,31.13
2019-03-24T09:53:33.230Z,29.50
2019-03-24T09:56:01.951Z,30.17
2019-03-24T09:58:30.661Z,26.27
2019-03-24T10:00:59.430Z,26.90
2019-03-24T10:03:28.147Z,29.00
2019-03-24T10:05:56.872Z,24.87
2019-03-24T10:08:25.625Z,23.70
2019-03-24T10:10:54.348Z,26.67
2019-03-24T10:13:23.074Z,26.03
2019-03-24T10:15:52.206Z,26.53
2019-03-24T10:18:20.931Z,24.77
2019-03-24T10:20:49.645Z,27.03
2019-03-24T10:23:18.374Z,34.73
2019-03-24T10:25:53.709Z,26.97
2019-03-24T10:28:22.427Z,30.60
2019-03-24T10:30:51.137Z,30.57
2019-03-24T10:33:19.855Z,29.60
2019-03-24T10:35:48.593Z,30.23
2019-03-24T10:38:17.350Z,28.13
2019-03-24T10:40:46.072Z,26.67
2019-03-24T10:43:14.786Z,25.37
2019-03-24T10:45:43.507Z,28.73
2019-03-24T10:48:12.218Z,28.03
2019-03-24T10:50:40.991Z,27.73
2019-03-24T10:53:09.713Z,27.23
2019-03-24T10:55:38.423Z,26.63
2019-03-24T10:58:07.189Z,26.03
2019-03-24T11:00:43.453Z,25.63
2019-03-24T11:03:12.269Z,20.83
2019-03-24T11:05:41.035Z,17.87
2019-03-24T11:08:09.764Z,19.47
2019-03-24T11:10:38.470Z,22.07
2019-03-24T11:13:07.236Z,18.13
2019-03-24T11:15:35.950Z,19.37
2019-03-24T11:18:04.671Z,19.27
2019-03-24T11:20:33.405Z,15.53
2019-03-24T11:23:02.117Z,16.37
2019-03-24T11:25:30.865Z,15.70
2019-03-24T11:27:59.583Z,16.47
2019-03-24T11:30:28.296Z,17.30
2019-03-24T11:32:57.011Z,21.23
2019-03-24T11:35:25.734Z,21.73
2019-03-24T11:37:54.496Z,20.33
2019-03-24T11:40:23.214Z,19.70
2019-03-24T11:42:51.932Z,16.53
2019-03-24T11:45:20.676Z,35.97
2019-03-24T11:47:49.383Z,19.43
2019-03-24T11:50:18.208Z,20.10
2019-03-24T11:52:51.835Z,15.73
2019-03-24T11:55:20.542Z,16.00
2019-03-24T11:57:52.333Z,16.37
2019-03-24T12:00:23.950Z,16.00
2019-03-24T12:02:52.668Z,14.23
2019-03-24T12:05:21.447Z,13.73
2019-03-24T12:07:50.140Z,16.80
2019-03-24T12:10:18.843Z,18.37
2019-03-24T12:12:51.219Z,16.63
2019-03-24T12:15:19.938Z,17.90
2019-03-24T12:17:51.287Z,16.70
2019-03-24T12:20:19.993Z,15.43
2019-03-24T12:22:48.707Z,14.43
2019-03-24T12:25:17.450Z,14.40
2019-03-24T12:27:46.161Z,18.13
2019-03-24T12:30:15.509Z,13.30
2019-03-24T12:32:44.228Z,19.03
2019-03-24T12:35:12.935Z,13.03
2019-03-24T12:37:41.682Z,17.20
2019-03-24T12:40:12.405Z,14.20
2019-03-24T12:42:41.114Z,14.40
2019-03-24T12:45:10.962Z,17.07
2019-03-24T12:47:39.674Z,15.13
2019-03-24T12:50:10.934Z,16.07
2019-03-24T12:52:39.688Z,11.63
2019-03-24T12:55:08.785Z,11.40
2019-03-24T12:57:37.496Z,12.80
2019-03-24T13:00:11.171Z,15.90
2019-03-24T13:02:39.982Z,13.47
2019-03-24T13:05:11.192Z,13.23
2019-03-24T13:07:39.924Z,13.53
2019-03-24T13:10:09.529Z,15.37
2019-03-24T13:12:38.285Z,12.67
2019-03-24T13:15:08.406Z,12.50
2019-03-24T13:17:37.102Z,15.37
2019-03-24T13:20:19.532Z,13.13
2019-03-24T13:22:38.466Z,11.53
2019-03-24T13:25:08.414Z,11.70
2019-03-24T13:27:37.117Z,15.57
2019-03-24T13:30:09.057Z,11.17
2019-03-24T13:32:37.816Z,17.03
2019-03-24T13:35:07.023Z,14.50
2019-03-24T13:37:35.725Z,12.30
2019-03-24T13:40:05.176Z,14.33
2019-03-24T13:42:33.890Z,12.70
2019-03-24T13:45:02.598Z,14.67
2019-03-24T13:47:31.346Z,14.27
2019-03-24T13:50:00.068Z,14.37
2019-03-24T13:52:28.773Z,13.80
2019-03-24T13:54:57.519Z,14.27
2019-03-24T13:57:26.232Z,11.97
2019-03-24T13:59:54.952Z,13.60
2019-03-24T14:02:23.814Z,12.40
2019-03-24T14:04:52.521Z,14.10
2019-03-24T14:07:21.225Z,11.53
2019-03-24T14:09:52.557Z,13.00
2019-03-24T14:12:21.275Z,12.70
2019-03-24T14:14:49.990Z,12.20
2019-03-24T14:17:18.740Z,15.20
2019-03-24T14:19:47.455Z,12.90
2019-03-24T14:22:16.166Z,15.10
2019-03-24T14:24:52.091Z,14.60
2019-03-24T14:27:20.771Z,13.23
2019-03-24T14:29:49.457Z,12.60
2019-03-24T14:32:18.200Z,13.13
2019-03-24T14:34:46.912Z,15.50
2019-03-24T14:37:15.626Z,15.30
2019-03-24T14:39:52.550Z,13.60
2019-03-24T14:42:21.269Z,11.90
2019-03-24T14:44:53.256Z,12.70
2019-03-24T14:47:21.993Z,13.33
2019-03-24T14:49:57.623Z,14.50
2019-03-24T14:52:27.803Z,15.60
2019-03-24T14:54:56.513Z,14.10
2019-03-24T14:57:25.264Z,13.37
2019-03-24T14:59:53.986Z,14.23
2019-03-24T15:02:22.691Z,14.10
2019-03-24T15:04:51.907Z,15.73
2019-03-24T15:07:20.616Z,11.10
2019-03-24T15:09:49.333Z,13.17
2019-03-24T15:12:18.057Z,15.77
2019-03-24T15:14:46.764Z,13.27
2019-03-24T15:17:15.472Z,13.20
2019-03-24T15:19:51.389Z,13.07
2019-03-24T15:22:20.095Z,14.07
2019-03-24T15:24:48.811Z,14.87
2019-03-24T15:27:17.566Z,13.70
2019-03-24T15:29:46.278Z,16.57
2019-03-24T15:32:15.000Z,14.43
2019-03-24T15:34:43.756Z,18.73
2019-03-24T15:37:12.478Z,18.20
2019-03-24T15:39:41.189Z,19.00
2019-03-24T15:42:09.938Z,19.87
2019-03-24T15:44:38.659Z,17.47
2019-03-24T15:47:07.382Z,19.23
2019-03-24T15:49:36.148Z,15.47
2019-03-24T15:52:04.862Z,18.30
2019-03-24T15:54:33.579Z,16.83
2019-03-24T15:57:02.349Z,14.93
2019-03-24T15:59:31.058Z,17.60
2019-03-24T16:01:59.766Z,18.27
2019-03-24T16:04:28.545Z,21.57
2019-03-24T16:06:57.261Z,359.97
2019-03-24T16:09:25.998Z,363.57
2019-03-24T16:11:54.727Z,181.73
2019-03-24T16:14:23.437Z,36.00
2019-03-24T16:16:53.308Z,33.83
2019-03-24T16:19:22.018Z,41.17
2019-03-24T16:21:50.725Z,66.17
2019-03-24T16:24:19.477Z,192.37
2019-03-24T16:26:48.199Z,183.30
2019-03-24T16:29:16.969Z,398.33
2019-03-24T16:31:45.688Z,246.53
2019-03-24T16:34:14.410Z,462.63
2019-03-24T16:36:43.175Z,240.70
2019-03-24T16:39:11.891Z,181.57
2019-03-24T16:41:40.610Z,134.37
2019-03-24T16:44:09.318Z,78.40
2019-03-24T16:46:38.026Z,52.37
2019-03-24T16:49:06.774Z,56.47
2019-03-24T16:51:38.811Z,77.00
2019-03-24T16:54:05.969Z,49.40
2019-03-24T16:56:34.720Z,49.07
2019-03-24T16:59:03.429Z,43.23
2019-03-24T17:01:32.180Z,50.50
2019-03-24T17:04:00.890Z,35.70
2019-03-24T17:06:29.601Z,33.40
2019-03-24T17:08:58.320Z,37.03
2019-03-24T17:11:27.032Z,40.77
2019-03-24T17:13:55.776Z,36.57
2019-03-24T17:16:24.497Z,44.33
2019-03-24T17:18:53.224Z,41.50
2019-03-24T17:21:21.942Z,35.57
2019-03-24T17:23:50.664Z,31.80
2019-03-24T17:26:19.417Z,43.03
2019-03-24T17:28:48.134Z,45.57
2019-03-24T17:31:16.850Z,43.83
2019-03-24T17:33:54.544Z,37.37
2019-03-24T17:36:23.253Z,37.37
2019-03-24T17:38:51.974Z,31.87
2019-03-24T17:41:20.750Z,34.43
2019-03-24T17:44:02.875Z,34.57
2019-03-24T17:46:24.943Z,32.93
2019-03-24T17:48:53.673Z,38.57
2019-03-24T17:51:22.390Z,37.13
2019-03-24T17:53:52.330Z,35.30
2019-03-24T17:56:21.046Z,51.83
2019-03-24T17:58:49.770Z,37.50
2019-03-24T18:01:18.526Z,38.07
2019-03-24T18:03:47.246Z,35.57
2019-03-24T18:06:15.961Z,32.30
2019-03-24T18:08:52.113Z,28.90
2019-03-24T18:11:20.835Z,32.70
2019-03-24T18:13:49.562Z,30.93
2019-03-24T18:16:18.321Z,39.73
2019-03-24T18:18:47.039Z,54.50
2019-03-24T18:21:16.683Z,36.23
2019-03-24T18:23:52.217Z,27.43
2019-03-24T18:26:20.941Z,30.37
2019-03-24T18:28:52.695Z,27.20
2019-03-24T18:31:22.897Z,25.43
2019-03-24T18:33:51.644Z,23.70
2019-03-24T18:36:20.395Z,27.67
2019-03-24T18:38:49.103Z,25.17
2019-03-24T18:41:17.812Z,31.90
2019-03-24T18:43:53.990Z,33.63
2019-03-24T18:46:22.704Z,36.67
2019-03-24T18:48:58.843Z,39.37
2019-03-24T18:51:27.560Z,30.93
2019-03-24T18:53:56.282Z,25.93
2019-03-24T18:56:25.038Z,25.27
2019-03-24T18:58:53.756Z,24.50
2019-03-24T19:01:22.466Z,25.47
2019-03-24T19:03:54.797Z,27.20
2019-03-24T19:06:23.545Z,27.13
2019-03-24T19:08:52.220Z,27.37
2019-03-24T19:11:20.978Z,31.07
2019-03-24T19:13:49.688Z,31.13
2019-03-24T19:16:18.407Z,33.07
2019-03-24T19:18:54.768Z,32.73
2019-03-24T19:21:23.482Z,32.07
2019-03-24T19:23:52.188Z,30.07
2019-03-24T19:26:20.957Z,26.60
2019-03-24T19:28:49.667Z,21.67
2019-03-24T19:31:18.482Z,23.47
2019-03-24T19:33:54.128Z,20.63
2019-03-24T19:36:22.843Z,18.70
2019-03-24T19:38:51.768Z,21.97
2019-03-24T19:41:20.529Z,21.80
2019-03-24T19:43:49.254Z,28.97
2019-03-24T19:46:17.984Z,52.47
2019-03-24T19:48:55.451Z,30.30
2019-03-24T19:51:24.181Z,29.10
2019-03-24T19:53:52.894Z,61.17
2019-03-24T19:56:21.651Z,51.77
2019-03-24T19:58:50.377Z,35.60
2019-03-24T20:01:19.076Z,27.27
2019-03-24T20:03:56.052Z,23.37
2019-03-24T20:06:24.774Z,20.50
2019-03-24T20:08:53.495Z,21.43
2019-03-24T20:11:22.248Z,23.97
2019-03-24T20:13:50.962Z,25.20
2019-03-24T20:16:19.682Z,28.40
2019-03-24T20:18:54.731Z,24.50
2019-03-24T20:21:23.451Z,24.17
2019-03-24T20:23:52.170Z,27.33
2019-03-24T20:26:20.924Z,26.67
2019-03-24T20:28:49.649Z,24.33
2019-03-24T20:31:18.363Z,23.50
2019-03-24T20:36:24.733Z,26.10
2019-03-24T20:38:53.456Z,26.77
2019-03-24T20:41:22.225Z,19.57
2019-03-24T20:43:50.937Z,17.83
2019-03-24T20:46:19.649Z,17.50
2019-03-24T20:48:57.434Z,18.00
2019-03-24T20:51:26.136Z,16.70
2019-03-24T20:53:57.210Z,17.53
2019-03-24T20:56:25.982Z,22.00
2019-03-24T20:58:54.701Z,22.10
2019-03-24T21:01:23.411Z,21.90
2019-03-24T21:03:54.414Z,24.67
2019-03-24T21:06:23.130Z,22.80
2019-03-24T21:08:56.355Z,19.23
2019-03-24T21:11:25.077Z,19.23
2019-03-24T21:13:53.791Z,19.53
2019-03-24T21:16:25.306Z,18.17
2019-03-24T21:18:52.999Z,19.10
2019-03-24T21:21:21.715Z,19.47
2019-03-24T21:23:54.752Z,19.93
2019-03-24T21:26:23.481Z,24.93
2019-03-24T21:28:54.783Z,37.70
2019-03-24T21:31:23.502Z,28.70
2019-03-24T21:33:52.230Z,28.33
2019-03-24T21:36:20.947Z,23.93
2019-03-24T21:38:49.662Z,24.40
2019-03-24T21:41:18.420Z,27.47
2019-03-24T21:43:47.122Z,26.53
2019-03-24T21:46:15.829Z,29.37
2019-03-24T21:51:22.203Z,32.23
2019-03-24T21:53:59.312Z,29.60
2019-03-24T21:56:28.082Z,25.57
2019-03-24T21:58:56.800Z,34.13
2019-03-24T22:01:25.519Z,33.73
2019-03-24T22:03:55.742Z,34.23
2019-03-24T22:06:24.455Z,33.97
2019-03-24T22:08:53.164Z,31.70
2019-03-24T22:11:21.926Z,26.17
2019-03-24T22:13:50.632Z,31.10
2019-03-24T22:16:19.342Z,33.33
2019-03-24T22:18:54.167Z,33.90
2019-03-24T22:21:22.886Z,39.23
2019-03-24T22:23:52.697Z,41.03
2019-03-24T22:26:21.727Z,45.23
2019-03-24T22:28:50.432Z,37.87
2019-03-24T22:31:19.138Z,34.87
2019-03-24T22:33:55.033Z,37.00
2019-03-24T22:36:23.747Z,31.73
2019-03-24T22:38:52.460Z,36.30
2019-03-24T22:41:21.200Z,33.43
2019-03-24T22:43:49.912Z,35.27
2019-03-24T22:46:18.617Z,32.77
2019-03-24T22:48:54.512Z,31.43
2019-03-24T22:51:23.212Z,39.30
2019-03-24T22:54:02.994Z,35.43
2019-03-24T22:56:23.664Z,29.20
2019-03-24T22:58:52.369Z,24.33
2019-03-24T23:01:21.681Z,19.73
2019-03-24T23:03:51.844Z,23.30
2019-03-24T23:06:20.549Z,19.83
2019-03-24T23:08:49.258Z,23.77
2019-03-24T23:11:17.975Z,26.37
2019-03-24T23:13:46.688Z,29.80
2019-03-24T23:16:15.763Z,34.33
2019-03-24T23:18:44.472Z,35.80
2019-03-24T23:21:13.179Z,39.77
2019-03-24T23:23:41.929Z,31.10
2019-03-24T23:26:10.649Z,24.80
2019-03-24T23:28:39.357Z,23.73
2019-03-24T23:31:08.098Z,25.93
2019-03-24T23:33:36.807Z,24.27
2019-03-24T23:36:05.513Z,25.23
2019-03-24T23:38:34.280Z,25.73
2019-03-24T23:41:03.181Z,22.13
2019-03-24T23:43:31.887Z,25.40
2019-03-24T23:46:00.648Z,24.17
2019-03-24T23:48:29.353Z,22.30
2019-03-24T23:50:58.103Z,27.37
2019-03-24T23:53:26.812Z,31.23
2019-03-24T23:55:55.856Z,27.07
2019-03-24T23:58:24.571Z,29.03
